createdAt,value
2019-05-18T08:26:03.167Z,99.90
2019-05-18T08:36:04.465Z,99.90
2019-05-18T08:46:05.763Z,99.90
2019-05-18T10:44:21.142Z,99.90
2019-05-18T10:54:22.417Z,99.90
2019-05-18T11:04:23.695Z,99.90
2019-05-18T11:14:24.989Z,99.90
2019-05-18T11:24:26.262Z,99.90
2019-05-18T11:34:29.404Z,99.90
2019-05-18T11:44:31.517Z,99.90
2019-05-18T11:54:33.537Z,99.90
2019-05-18T12:04:34.819Z,99.90
2019-05-18T12:14:36.837Z,99.90
2019-05-18T12:24:38.095Z,99.90
2019-05-18T12:34:39.377Z,99.90
2019-05-18T12:44:40.702Z,99.90
2019-05-18T12:54:46.578Z,99.90
2019-05-18T13:04:43.319Z,99.90
2019-05-18T13:14:44.612Z,99.20
2019-05-18T13:24:46.663Z,98.30
2019-05-18T13:34:47.998Z,98.30
2019-05-18T13:44:49.281Z,98.40
2019-05-18T13:55:02.827Z,98.80
2019-05-18T14:04:51.851Z,98.30
2019-05-18T14:14:53.200Z,98.60
2019-05-18T14:24:55.251Z,96.00
2019-05-18T14:34:56.534Z,96.00
2019-05-18T14:44:57.834Z,97.70
2019-05-18T14:55:01.257Z,98.00
2019-05-18T15:05:03.417Z,96.80
2019-05-18T15:15:05.791Z,96.80
2019-05-18T15:25:07.098Z,94.80
2019-05-18T15:35:09.126Z,95.10
2019-05-18T15:45:10.451Z,95.10
2019-05-18T15:55:11.743Z,92.70
2019-05-18T16:05:13.010Z,92.80
2019-05-18T16:15:14.412Z,90.80
2019-05-18T16:25:15.723Z,92.70
2019-05-18T16:35:17.298Z,93.50
2019-05-18T16:45:18.889Z,96.30
2019-05-18T16:55:21.035Z,98.40
2019-05-18T17:05:22.357Z,98.40
2019-05-18T17:15:27.623Z,96.70
2019-05-18T17:25:30.797Z,97.50
2019-05-18T17:35:34.398Z,99.30
2019-05-18T17:45:35.706Z,99.90
2019-05-18T17:55:37.030Z,99.90
2019-05-18T18:05:38.298Z,99.90
2019-05-18T18:15:39.577Z,99.90
2019-05-18T18:25:40.963Z,99.90
2019-05-18T18:35:42.257Z,99.90
2019-05-18T18:45:43.671Z,99.90
2019-05-18T18:55:45.723Z,99.90
2019-05-18T19:05:47.033Z,99.90
2019-05-18T19:15:48.327Z,99.90
2019-05-18T19:25:50.695Z,99.90
